sensor_id;sensor_type;location;lat;lon;timestamp;pressure;altitude;pressure_sealevel;temperature;humidity
20987;BME280;10652;50.306;8.570;2023-03-01T00:03:35;99052.66;;;-2.68;74.83
20987;BME280;10652;50.306;8.570;2023-03-01T00:07:37;99065.63;;;-2.62;74.51
20987;BME280;10652;50.306;8.570;2023-03-01T00:11:41;99064.06;;;-2.54;74.49
20987;BME280;10652;50.306;8.570;2023-03-01T00:15:43;99069.16;;;-2.57;73.07
20987;BME280;10652;50.306;8.570;2023-03-01T00:19:45;99065.63;;;-2.62;73.05
20987;BME280;10652;50.306;8.570;2023-03-01T00:23:48;99059.66;;;-2.61;72.90
20987;BME280;10652;50.306;8.570;2023-03-01T00:27:50;99067.31;;;-2.64;72.59
20987;BME280;10652;50.306;8.570;2023-03-01T00:31:52;99052.56;;;-2.73;72.26
20987;BME280;10652;50.306;8.570;2023-03-01T00:35:54;99054.94;;;-2.80;72.85
20987;BME280;10652;50.306;8.570;2023-03-01T00:39:56;99048.00;;;-2.84;72.70
20987;BME280;10652;50.306;8.570;2023-03-01T00:43:58;99042.91;;;-2.81;73.39
20987;BME280;10652;50.306;8.570;2023-03-01T00:48:01;99039.50;;;-2.80;72.77
20987;BME280;10652;50.306;8.570;2023-03-01T00:52:03;99032.63;;;-2.81;73.31
20987;BME280;10652;50.306;8.570;2023-03-01T00:56:06;99030.91;;;-2.82;73.57
20987;BME280;10652;50.306;8.570;2023-03-01T01:00:09;99036.88;;;-2.83;74.13
20987;BME280;10652;50.306;8.570;2023-03-01T01:04:13;99030.09;;;-2.80;73.92
20987;BME280;10652;50.306;8.570;2023-03-01T01:08:15;99017.19;;;-2.81;73.37
20987;BME280;10652;50.306;8.570;2023-03-01T01:12:17;99013.59;;;-2.90;72.71
20987;BME280;10652;50.306;8.570;2023-03-01T01:16:20;99008.34;;;-2.96;73.68
20987;BME280;10652;50.306;8.570;2023-03-01T01:20:23;99009.19;;;-2.95;74.41
20987;BME280;10652;50.306;8.570;2023-03-01T01:24:25;98998.91;;;-2.97;73.83
20987;BME280;10652;50.306;8.570;2023-03-01T01:28:27;99004.72;;;-3.04;73.79
20987;BME280;10652;50.306;8.570;2023-03-01T01:32:30;99006.13;;;-3.18;74.04
20987;BME280;10652;50.306;8.570;2023-03-01T01:36:32;98991.25;;;-3.32;74.16
20987;BME280;10652;50.306;8.570;2023-03-01T01:40:34;98978.16;;;-3.43;74.76
20987;BME280;10652;50.306;8.570;2023-03-01T01:44:36;98986.78;;;-3.41;75.63
20987;BME280;10652;50.306;8.570;2023-03-01T01:48:48;98992.00;;;-3.37;75.88
20987;BME280;10652;50.306;8.570;2023-03-01T01:52:53;99002.44;;;-3.29;75.60
20987;BME280;10652;50.306;8.570;2023-03-01T01:57:00;98998.19;;;-3.28;76.17
20987;BME280;10652;50.306;8.570;2023-03-01T02:01:04;98993.66;;;-3.39;76.20
20987;BME280;10652;50.306;8.570;2023-03-01T02:05:29;99007.44;;;-3.35;77.14
20987;BME280;10652;50.306;8.570;2023-03-01T02:09:34;99001.63;;;-3.28;77.39
20987;BME280;10652;50.306;8.570;2023-03-01T02:13:37;98999.22;;;-3.20;77.08
20987;BME280;10652;50.306;8.570;2023-03-01T02:17:40;98991.63;;;-3.16;77.02
20987;BME280;10652;50.306;8.570;2023-03-01T02:22:28;98980.50;;;-3.15;77.37
20987;BME280;10652;50.306;8.570;2023-03-01T02:26:40;98983.09;;;-3.13;77.17
20987;BME280;10652;50.306;8.570;2023-03-01T02:30:47;98980.41;;;-3.18;76.60
20987;BME280;10652;50.306;8.570;2023-03-01T02:35:12;98976.25;;;-3.14;77.01
20987;BME280;10652;50.306;8.570;2023-03-01T02:39:18;98966.03;;;-3.11;77.15
20987;BME280;10652;50.306;8.570;2023-03-01T02:43:26;98958.41;;;-3.07;77.47
20987;BME280;10652;50.306;8.570;2023-03-01T02:47:29;98947.31;;;-3.06;77.06
20987;BME280;10652;50.306;8.570;2023-03-01T02:55:48;98944.66;;;-3.09;76.47
20987;BME280;10652;50.306;8.570;2023-03-01T02:59:51;98941.97;;;-3.13;77.21
20987;BME280;10652;50.306;8.570;2023-03-01T03:03:54;98939.19;;;-3.24;76.50
20987;BME280;10652;50.306;8.570;2023-03-01T03:07:58;98940.16;;;-3.19;77.11
20987;BME280;10652;50.306;8.570;2023-03-01T03:12:01;98930.69;;;-3.21;76.87
20987;BME280;10652;50.306;8.570;2023-03-01T03:16:04;98924.59;;;-3.25;77.01
20987;BME280;10652;50.306;8.570;2023-03-01T03:20:07;98927.13;;;-3.28;76.69
20987;BME280;10652;50.306;8.570;2023-03-01T03:24:13;98920.25;;;-3.29;77.39
20987;BME280;10652;50.306;8.570;2023-03-01T03:28:15;98915.16;;;-3.26;77.51
20987;BME280;10652;50.306;8.570;2023-03-01T03:32:17;98903.28;;;-3.21;77.60
20987;BME280;10652;50.306;8.570;2023-03-01T03:36:22;98903.28;;;-3.21;77.97
20987;BME280;10652;50.306;8.570;2023-03-01T03:40:26;98899.88;;;-3.20;78.18
20987;BME280;10652;50.306;8.570;2023-03-01T03:44:28;98901.53;;;-3.22;77.87
20987;BME280;10652;50.306;8.570;2023-03-01T03:48:33;98889.50;;;-3.24;78.03
20987;BME280;10652;50.306;8.570;2023-03-01T03:52:35;98902.25;;;-3.29;77.66
20987;BME280;10652;50.306;8.570;2023-03-01T03:56:37;98903.75;;;-3.39;78.31
20987;BME280;10652;50.306;8.570;2023-03-01T04:00:42;98899.44;;;-3.40;78.54
20987;BME280;10652;50.306;8.570;2023-03-01T04:04:45;98900.28;;;-3.41;78.64
20987;BME280;10652;50.306;8.570;2023-03-01T04:08:47;98895.91;;;-3.46;78.33
20987;BME280;10652;50.306;8.570;2023-03-01T04:12:53;98895.72;;;-3.54;78.89
20987;BME280;10652;50.306;8.570;2023-03-01T04:16:55;98898.38;;;-3.51;79.25
20987;BME280;10652;50.306;8.570;2023-03-01T04:20:57;98898.38;;;-3.49;79.48
20987;BME280;10652;50.306;8.570;2023-03-01T04:24:59;98899.28;;;-3.47;79.53
20987;BME280;10652;50.306;8.570;2023-03-01T04:29:08;98906.09;;;-3.49;79.07
20987;BME280;10652;50.306;8.570;2023-03-01T04:33:10;98896.72;;;-3.47;79.64
20987;BME280;10652;50.306;8.570;2023-03-01T04:37:13;98899.34;;;-3.44;79.53
20987;BME280;10652;50.306;8.570;2023-03-01T04:41:19;98895.97;;;-3.43;79.90
20987;BME280;10652;50.306;8.570;2023-03-01T04:45:22;98882.28;;;-3.42;79.52
20987;BME280;10652;50.306;8.570;2023-03-01T04:49:24;98890.00;;;-3.41;79.86
20987;BME280;10652;50.306;8.570;2023-03-01T04:53:27;98885.81;;;-3.37;79.90
20987;BME280;10652;50.306;8.570;2023-03-01T04:57:29;98886.72;;;-3.35;79.36
20987;BME280;10652;50.306;8.570;2023-03-01T05:01:31;98892.00;;;-3.29;79.14
20987;BME280;10652;50.306;8.570;2023-03-01T05:05:36;98880.84;;;-3.29;79.03
20987;BME280;10652;50.306;8.570;2023-03-01T05:09:39;98876.53;;;-3.30;78.91
20987;BME280;10652;50.306;8.570;2023-03-01T05:13:41;98877.44;;;-3.27;78.51
20987;BME280;10652;50.306;8.570;2023-03-01T05:17:43;98881.81;;;-3.24;78.48
20987;BME280;10652;50.306;8.570;2023-03-01T05:21:45;98880.13;;;-3.22;78.53
20987;BME280;10652;50.306;8.570;2023-03-01T05:26:06;98879.38;;;-3.17;78.56
20987;BME280;10652;50.306;8.570;2023-03-01T05:30:23;98879.19;;;-3.26;77.80
20987;BME280;10652;50.306;8.570;2023-03-01T05:34:26;98873.66;;;-3.44;77.97
20987;BME280;10652;50.306;8.570;2023-03-01T05:38:28;98875.22;;;-3.52;79.30
20987;BME280;10652;50.306;8.570;2023-03-01T05:42:30;98868.44;;;-3.49;79.21
20987;BME280;10652;50.306;8.570;2023-03-01T05:46:32;98868.47;;;-3.47;80.07
20987;BME280;10652;50.306;8.570;2023-03-01T05:50:39;98871.94;;;-3.45;80.82
20987;BME280;10652;50.306;8.570;2023-03-01T05:54:42;98870.44;;;-3.36;80.62
20987;BME280;10652;50.306;8.570;2023-03-01T05:58:44;98857.69;;;-3.31;80.24
20987;BME280;10652;50.306;8.570;2023-03-01T06:02:46;98863.59;;;-3.37;79.47
20987;BME280;10652;50.306;8.570;2023-03-01T06:06:48;98861.84;;;-3.36;79.54
20987;BME280;10652;50.306;8.570;2023-03-01T06:10:50;98864.38;;;-3.39;79.29
20987;BME280;10652;50.306;8.570;2023-03-01T06:14:52;98870.47;;;-3.34;80.15
20987;BME280;10652;50.306;8.570;2023-03-01T06:18:54;98869.78;;;-3.25;80.21
20987;BME280;10652;50.306;8.570;2023-03-01T06:22:56;98878.56;;;-3.16;80.18
20987;BME280;10652;50.306;8.570;2023-03-01T06:26:58;98873.50;;;-3.11;79.81
20987;BME280;10652;50.306;8.570;2023-03-01T06:31:00;98877.03;;;-3.06;78.85
20987;BME280;10652;50.306;8.570;2023-03-01T06:35:04;98869.44;;;-3.02;78.86
20987;BME280;10652;50.306;8.570;2023-03-01T06:39:06;98867.81;;;-2.97;78.45
20987;BME280;10652;50.306;8.570;2023-03-01T06:43:08;98870.63;;;-2.84;78.94
20987;BME280;10652;50.306;8.570;2023-03-01T06:47:11;98869.34;;;-2.61;78.69
20987;BME280;10652;50.306;8.570;2023-03-01T06:51:13;98862.53;;;-2.58;76.86
20987;BME280;10652;50.306;8.570;2023-03-01T06:55:15;98853.47;;;-2.36;78.53
20987;BME280;10652;50.306;8.570;2023-03-01T06:59:17;98846.13;;;-2.15;77.09
20987;BME280;10652;50.306;8.570;2023-03-01T07:03:19;98841.97;;;-2.07;76.09
20987;BME280;10652;50.306;8.570;2023-03-01T07:07:21;98847.09;;;-2.08;75.07
20987;BME280;10652;50.306;8.570;2023-03-01T07:11:24;98851.50;;;-2.01;75.35
20987;BME280;10652;50.306;8.570;2023-03-01T07:15:27;98854.16;;;-1.96;74.73
20987;BME280;10652;50.306;8.570;2023-03-01T07:19:29;98855.63;;;-2.11;73.62
20987;BME280;10652;50.306;8.570;2023-03-01T07:23:31;98849.72;;;-2.05;79.05
20987;BME280;10652;50.306;8.570;2023-03-01T07:27:33;98849.84;;;-1.97;77.38
20987;BME280;10652;50.306;8.570;2023-03-01T07:31:35;98848.59;;;-2.21;75.49
20987;BME280;10652;50.306;8.570;2023-03-01T07:35:38;98849.28;;;-2.32;76.17
20987;BME280;10652;50.306;8.570;2023-03-01T07:39:40;98846.31;;;-2.54;75.85
20987;BME280;10652;50.306;8.570;2023-03-01T07:43:42;98839.34;;;-2.61;76.67
20987;BME280;10652;50.306;8.570;2023-03-01T07:47:44;98850.34;;;-2.69;77.96
20987;BME280;10652;50.306;8.570;2023-03-01T07:51:46;98854.53;;;-2.74;78.40
20987;BME280;10652;50.306;8.570;2023-03-01T07:55:48;98856.19;;;-2.76;78.42
20987;BME280;10652;50.306;8.570;2023-03-01T07:59:50;98855.22;;;-2.83;79.42
20987;BME280;10652;50.306;8.570;2023-03-01T08:03:52;98847.66;;;-2.75;80.13
20987;BME280;10652;50.306;8.570;2023-03-01T08:07:54;98858.94;;;-2.69;80.42
20987;BME280;10652;50.306;8.570;2023-03-01T08:11:57;98840.22;;;-2.59;79.68
20987;BME280;10652;50.306;8.570;2023-03-01T08:16:07;98845.44;;;-2.56;79.84
20987;BME280;10652;50.306;8.570;2023-03-01T08:20:10;98843.13;;;-2.40;79.62
20987;BME280;10652;50.306;8.570;2023-03-01T08:24:14;98850.97;;;-2.33;78.95
20987;BME280;10652;50.306;8.570;2023-03-01T08:28:16;98845.91;;;-2.27;78.25
20987;BME280;10652;50.306;8.570;2023-03-01T08:32:18;98835.78;;;-2.18;78.20
20987;BME280;10652;50.306;8.570;2023-03-01T08:36:29;98833.34;;;-2.10;77.34
20987;BME280;10652;50.306;8.570;2023-03-01T08:40:32;98825.72;;;-2.03;77.72
20987;BME280;10652;50.306;8.570;2023-03-01T08:44:34;98833.69;;;-1.87;76.12
20987;BME280;10652;50.306;8.570;2023-03-01T08:48:36;98816.59;;;-1.82;75.41
20987;BME280;10652;50.306;8.570;2023-03-01T08:52:38;98815.00;;;-1.73;75.32
20987;BME280;10652;50.306;8.570;2023-03-01T08:56:41;98814.31;;;-1.61;75.27
20987;BME280;10652;50.306;8.570;2023-03-01T09:00:43;98810.22;;;-1.47;74.68
20987;BME280;10652;50.306;8.570;2023-03-01T09:04:46;98811.25;;;-1.31;73.75
20987;BME280;10652;50.306;8.570;2023-03-01T09:08:49;98803.66;;;-1.21;72.41
20987;BME280;10652;50.306;8.570;2023-03-01T09:12:51;98808.97;;;-1.07;71.08
20987;BME280;10652;50.306;8.570;2023-03-01T09:16:53;98814.25;;;-0.96;70.90
20987;BME280;10652;50.306;8.570;2023-03-01T09:21:06;98804.00;;;-0.89;69.00
20987;BME280;10652;50.306;8.570;2023-03-01T09:25:09;98808.38;;;-0.83;68.64
20987;BME280;10652;50.306;8.570;2023-03-01T09:29:11;98792.16;;;-0.73;69.08
20987;BME280;10652;50.306;8.570;2023-03-01T09:33:13;98782.78;;;-0.59;67.95
20987;BME280;10652;50.306;8.570;2023-03-01T09:37:16;98788.91;;;-0.48;67.34
20987;BME280;10652;50.306;8.570;2023-03-01T09:45:48;98773.72;;;-0.14;64.35
20987;BME280;10652;50.306;8.570;2023-03-01T09:54:01;98763.56;;;0.16;64.07
20987;BME280;10652;50.306;8.570;2023-03-01T09:58:27;98772.28;;;0.32;62.80
20987;BME280;10652;50.306;8.570;2023-03-01T10:02:39;98765.41;;;0.43;61.75
20987;BME280;10652;50.306;8.570;2023-03-01T10:07:03;98768.00;;;0.43;61.25
20987;BME280;10652;50.306;8.570;2023-03-01T10:11:22;98762.84;;;0.43;60.84
20987;BME280;10652;50.306;8.570;2023-03-01T10:15:37;98764.63;;;0.53;60.14
20987;BME280;10652;50.306;8.570;2023-03-01T10:19:43;98759.47;;;0.68;60.47
20987;BME280;10652;50.306;8.570;2023-03-01T10:23:49;98752.63;;;0.78;58.85
20987;BME280;10652;50.306;8.570;2023-03-01T10:27:54;98767.28;;;0.74;57.88
20987;BME280;10652;50.306;8.570;2023-03-01T10:31:57;98751.75;;;0.77;59.15
20987;BME280;10652;50.306;8.570;2023-03-01T10:35:59;98736.28;;;0.89;59.37
20987;BME280;10652;50.306;8.570;2023-03-01T10:40:05;98742.34;;;1.00;59.20
20987;BME280;10652;50.306;8.570;2023-03-01T10:44:40;98738.06;;;1.07;58.06
20987;BME280;10652;50.306;8.570;2023-03-01T10:48:42;98735.50;;;1.22;58.16
20987;BME280;10652;50.306;8.570;2023-03-01T10:52:56;98723.41;;;1.27;58.12
20987;BME280;10652;50.306;8.570;2023-03-01T10:57:04;98727.72;;;1.34;56.22
20987;BME280;10652;50.306;8.570;2023-03-01T11:05:22;98712.19;;;1.62;56.28
20987;BME280;10652;50.306;8.570;2023-03-01T11:09:31;98706.16;;;1.76;56.75
20987;BME280;10652;50.306;8.570;2023-03-01T11:13:56;98701.81;;;1.86;56.06
20987;BME280;10652;50.306;8.570;2023-03-01T11:17:59;98694.84;;;2.00;55.52
20987;BME280;10652;50.306;8.570;2023-03-01T11:22:20;98682.72;;;2.17;53.83
20987;BME280;10652;50.306;8.570;2023-03-01T11:26:23;98675.78;;;2.25;53.26
20987;BME280;10652;50.306;8.570;2023-03-01T11:30:32;98665.41;;;2.21;52.95
20987;BME280;10652;50.306;8.570;2023-03-01T11:38:45;98667.03;;;2.47;53.14
20987;BME280;10652;50.306;8.570;2023-03-01T11:43:05;98666.16;;;2.53;52.31
20987;BME280;10652;50.306;8.570;2023-03-01T11:47:21;98672.16;;;2.63;52.29
20987;BME280;10652;50.306;8.570;2023-03-01T11:51:38;98657.50;;;2.51;52.58
20987;BME280;10652;50.306;8.570;2023-03-01T11:56:16;98637.47;;;2.73;53.19
20987;BME280;10652;50.306;8.570;2023-03-01T12:01:08;98640.78;;;2.99;52.01
20987;BME280;10652;50.306;8.570;2023-03-01T12:09:46;98619.97;;;3.02;50.61
20987;BME280;10652;50.306;8.570;2023-03-01T12:14:10;98618.25;;;3.01;51.25
20987;BME280;10652;50.306;8.570;2023-03-01T12:41:11;98578.66;;;3.69;49.77
20987;BME280;10652;50.306;8.570;2023-03-01T12:49:49;98583.81;;;3.72;47.49
20987;BME280;10652;50.306;8.570;2023-03-01T12:53:54;98576.88;;;3.74;48.38
20987;BME280;10652;50.306;8.570;2023-03-01T12:58:06;98567.34;;;3.75;47.40
20987;BME280;10652;50.306;8.570;2023-03-01T13:02:19;98563.06;;;3.69;47.99
20987;BME280;10652;50.306;8.570;2023-03-01T13:06:41;98575.03;;;3.84;48.52
20987;BME280;10652;50.306;8.570;2023-03-01T13:10:50;98545.53;;;3.90;48.97
20987;BME280;10652;50.306;8.570;2023-03-01T13:14:54;98543.78;;;3.92;47.07
20987;BME280;10652;50.306;8.570;2023-03-01T13:19:07;98543.75;;;3.93;47.78
20987;BME280;10652;50.306;8.570;2023-03-01T13:27:26;98545.38;;;4.03;48.00
20987;BME280;10652;50.306;8.570;2023-03-01T13:35:44;98535.72;;;4.11;46.96
20987;BME280;10652;50.306;8.570;2023-03-01T13:39:46;98518.34;;;4.15;45.99
20987;BME280;10652;50.306;8.570;2023-03-01T13:43:50;98504.41;;;4.20;47.07
20987;BME280;10652;50.306;8.570;2023-03-01T13:48:02;98515.69;;;4.18;47.27
20987;BME280;10652;50.306;8.570;2023-03-01T13:52:05;98500.00;;;4.25;46.72
20987;BME280;10652;50.306;8.570;2023-03-01T13:56:27;98499.78;;;4.39;46.72
20987;BME280;10652;50.306;8.570;2023-03-01T14:00:35;98498.13;;;4.32;46.61
20987;BME280;10652;50.306;8.570;2023-03-01T14:04:37;98495.66;;;4.24;46.59
20987;BME280;10652;50.306;8.570;2023-03-01T14:08:41;98499.13;;;4.23;45.98
20987;BME280;10652;50.306;8.570;2023-03-01T14:12:54;98506.00;;;4.31;46.12
20987;BME280;10652;50.306;8.570;2023-03-01T14:21:22;98490.28;;;4.37;45.85
20987;BME280;10652;50.306;8.570;2023-03-01T14:25:28;98503.22;;;4.41;46.21
20987;BME280;10652;50.306;8.570;2023-03-01T14:29:37;98483.97;;;4.51;46.04
20987;BME280;10652;50.306;8.570;2023-03-01T14:33:40;98478.84;;;4.48;46.05
20987;BME280;10652;50.306;8.570;2023-03-01T14:37:43;98470.38;;;4.34;45.61
20987;BME280;10652;50.306;8.570;2023-03-01T14:41:45;98471.28;;;4.32;45.77
20987;BME280;10652;50.306;8.570;2023-03-01T14:45:49;98466.00;;;4.38;46.52
20987;BME280;10652;50.306;8.570;2023-03-01T14:49:58;98483.31;;;4.40;45.69
20987;BME280;10652;50.306;8.570;2023-03-01T14:54:01;98475.53;;;4.37;45.90
20987;BME280;10652;50.306;8.570;2023-03-01T14:58:05;98466.03;;;4.35;46.91
20987;BME280;10652;50.306;8.570;2023-03-01T15:02:13;98458.16;;;4.39;47.47
20987;BME280;10652;50.306;8.570;2023-03-01T15:06:21;98470.31;;;4.40;46.55
20987;BME280;10652;50.306;8.570;2023-03-01T15:10:27;98460.88;;;4.32;47.39
20987;BME280;10652;50.306;8.570;2023-03-01T15:14:40;98467.91;;;4.27;47.53
20987;BME280;10652;50.306;8.570;2023-03-01T15:19:04;98448.00;;;4.22;47.68
20987;BME280;10652;50.306;8.570;2023-03-01T15:23:18;98463.63;;;4.22;47.46
20987;BME280;10652;50.306;8.570;2023-03-01T15:27:25;98457.75;;;4.10;47.32
20987;BME280;10652;50.306;8.570;2023-03-01T15:31:37;98447.31;;;4.11;48.13
20987;BME280;10652;50.306;8.570;2023-03-01T15:35:44;98462.97;;;4.08;47.29
20987;BME280;10652;50.306;8.570;2023-03-01T15:39:54;98452.81;;;3.92;47.29
20987;BME280;10652;50.306;8.570;2023-03-01T15:44:00;98461.53;;;3.89;47.43
20987;BME280;10652;50.306;8.570;2023-03-01T15:48:18;98460.75;;;3.79;46.55
20987;BME280;10652;50.306;8.570;2023-03-01T15:56:31;98466.94;;;3.68;45.66
20987;BME280;10652;50.306;8.570;2023-03-01T16:00:33;98479.97;;;3.65;45.57
20987;BME280;10652;50.306;8.570;2023-03-01T16:04:35;98473.97;;;3.63;45.30
20987;BME280;10652;50.306;8.570;2023-03-01T16:08:38;98475.53;;;3.74;47.29
20987;BME280;10652;50.306;8.570;2023-03-01T16:12:40;98483.84;;;4.04;44.73
20987;BME280;10652;50.306;8.570;2023-03-01T16:16:43;98486.78;;;3.76;44.83
20987;BME280;10652;50.306;8.570;2023-03-01T16:20:45;98493.91;;;3.59;45.08
20987;BME280;10652;50.306;8.570;2023-03-01T16:24:48;98485.41;;;3.45;45.67
20987;BME280;10652;50.306;8.570;2023-03-01T16:28:54;98479.50;;;3.32;45.87
20987;BME280;10652;50.306;8.570;2023-03-01T16:32:57;98474.41;;;3.23;46.56
20987;BME280;10652;50.306;8.570;2023-03-01T16:37:00;98473.69;;;3.12;46.42
20987;BME280;10652;50.306;8.570;2023-03-01T16:41:03;98472.88;;;3.07;46.30
20987;BME280;10652;50.306;8.570;2023-03-01T16:45:05;98474.69;;;2.99;46.19
20987;BME280;10652;50.306;8.570;2023-03-01T16:49:24;98469.59;;;2.90;46.85
20987;BME280;10652;50.306;8.570;2023-03-01T16:53:27;98470.59;;;2.77;47.07
20987;BME280;10652;50.306;8.570;2023-03-01T16:57:29;98467.22;;;2.67;47.29
20987;BME280;10652;50.306;8.570;2023-03-01T17:01:32;98475.03;;;2.60;47.45
20987;BME280;10652;50.306;8.570;2023-03-01T17:05:41;98476.88;;;2.48;47.63
20987;BME280;10652;50.306;8.570;2023-03-01T17:09:43;98482.09;;;2.42;47.82
20987;BME280;10652;50.306;8.570;2023-03-01T17:13:45;98504.63;;;2.34;48.08
20987;BME280;10652;50.306;8.570;2023-03-01T17:17:47;98502.06;;;2.28;47.76
20987;BME280;10652;50.306;8.570;2023-03-01T17:21:52;98509.88;;;2.25;47.70
20987;BME280;10652;50.306;8.570;2023-03-01T17:25:54;98494.41;;;2.18;47.17
20987;BME280;10652;50.306;8.570;2023-03-01T17:29:56;98494.44;;;2.09;46.97
20987;BME280;10652;50.306;8.570;2023-03-01T17:33:58;98497.06;;;2.04;46.71
20987;BME280;10652;50.306;8.570;2023-03-01T17:38:03;98492.78;;;1.97;46.62
20987;BME280;10652;50.306;8.570;2023-03-01T17:42:06;98487.63;;;1.91;46.62
20987;BME280;10652;50.306;8.570;2023-03-01T17:46:08;98485.09;;;1.83;46.97
20987;BME280;10652;50.306;8.570;2023-03-01T17:50:10;98486.88;;;1.77;47.37
20987;BME280;10652;50.306;8.570;2023-03-01T17:54:13;98500.72;;;1.64;48.10
20987;BME280;10652;50.306;8.570;2023-03-01T17:58:15;98500.75;;;1.56;48.20
20987;BME280;10652;50.306;8.570;2023-03-01T18:02:23;98507.66;;;1.51;48.65
20987;BME280;10652;50.306;8.570;2023-03-01T18:06:28;98515.44;;;1.46;48.90
20987;BME280;10652;50.306;8.570;2023-03-01T18:10:31;98516.34;;;1.39;49.12
20987;BME280;10652;50.306;8.570;2023-03-01T18:14:34;98518.94;;;1.33;49.47
20987;BME280;10652;50.306;8.570;2023-03-01T18:18:36;98514.66;;;1.29;49.68
20987;BME280;10652;50.306;8.570;2023-03-01T18:22:38;98509.50;;;1.25;50.18
20987;BME280;10652;50.306;8.570;2023-03-01T18:26:40;98521.56;;;1.21;50.27
20987;BME280;10652;50.306;8.570;2023-03-01T18:30:42;98525.91;;;1.13;51.08
20987;BME280;10652;50.306;8.570;2023-03-01T18:34:44;98518.16;;;1.05;51.23
20987;BME280;10652;50.306;8.570;2023-03-01T18:38:46;98506.94;;;0.96;52.03
20987;BME280;10652;50.306;8.570;2023-03-01T18:42:49;98505.25;;;0.89;52.48
20987;BME280;10652;50.306;8.570;2023-03-01T18:46:51;98496.63;;;0.84;53.22
20987;BME280;10652;50.306;8.570;2023-03-01T18:50:53;98504.38;;;0.78;53.62
20987;BME280;10652;50.306;8.570;2023-03-01T18:54:56;98491.47;;;0.72;53.94
20987;BME280;10652;50.306;8.570;2023-03-01T18:58:59;98488.88;;;0.64;54.75
20987;BME280;10652;50.306;8.570;2023-03-01T19:03:01;98484.59;;;0.52;55.77
20987;BME280;10652;50.306;8.570;2023-03-01T19:07:04;98476.84;;;0.46;56.10
20987;BME280;10652;50.306;8.570;2023-03-01T19:11:07;98478.56;;;0.43;56.48
20987;BME280;10652;50.306;8.570;2023-03-01T19:15:10;98495.81;;;0.41;57.21
20987;BME280;10652;50.306;8.570;2023-03-01T19:19:12;98482.00;;;0.42;57.39
20987;BME280;10652;50.306;8.570;2023-03-01T19:23:14;98482.00;;;0.42;57.05
20987;BME280;10652;50.306;8.570;2023-03-01T19:27:16;98500.09;;;0.40;57.36
20987;BME280;10652;50.306;8.570;2023-03-01T19:31:24;98491.50;;;0.35;57.47
20987;BME280;10652;50.306;8.570;2023-03-01T19:35:27;98489.78;;;0.31;58.16
20987;BME280;10652;50.306;8.570;2023-03-01T19:39:29;98489.75;;;0.22;58.52
20987;BME280;10652;50.306;8.570;2023-03-01T19:43:31;98489.75;;;0.19;58.74
20987;BME280;10652;50.306;8.570;2023-03-01T19:47:33;98488.03;;;0.12;58.84
20987;BME280;10652;50.306;8.570;2023-03-01T19:51:35;98490.59;;;0.12;58.75
20987;BME280;10652;50.306;8.570;2023-03-01T19:55:40;98490.59;;;0.06;59.11
20987;BME280;10652;50.306;8.570;2023-03-01T19:59:43;98494.00;;;0.05;58.85
20987;BME280;10652;50.306;8.570;2023-03-01T20:03:45;98503.50;;;0.06;58.83
20987;BME280;10652;50.306;8.570;2023-03-01T20:07:47;98500.91;;;0.03;58.99
20987;BME280;10652;50.306;8.570;2023-03-01T20:11:51;98500.91;;;0.01;58.82
20987;BME280;10652;50.306;8.570;2023-03-01T20:15:57;98508.66;;;-0.00;59.01
20987;BME280;10652;50.306;8.570;2023-03-01T20:19:59;98501.75;;;-0.04;58.96
20987;BME280;10652;50.306;8.570;2023-03-01T20:24:01;98509.50;;;-0.04;59.27
20987;BME280;10652;50.306;8.570;2023-03-01T20:28:03;98506.91;;;-0.10;59.21
20987;BME280;10652;50.306;8.570;2023-03-01T20:32:06;98503.47;;;-0.15;59.34
20987;BME280;10652;50.306;8.570;2023-03-01T20:36:08;98497.44;;;-0.19;59.74
20987;BME280;10652;50.306;8.570;2023-03-01T20:40:11;98507.75;;;-0.24;60.04
20987;BME280;10652;50.306;8.570;2023-03-01T20:44:13;98508.59;;;-0.28;60.12
20987;BME280;10652;50.306;8.570;2023-03-01T20:48:15;98500.81;;;-0.34;60.07
20987;BME280;10652;50.306;8.570;2023-03-01T20:52:18;98508.53;;;-0.35;60.33
20987;BME280;10652;50.306;8.570;2023-03-01T20:56:21;98519.72;;;-0.39;60.06
20987;BME280;10652;50.306;8.570;2023-03-01T21:00:35;98508.53;;;-0.43;60.01
20987;BME280;10652;50.306;8.570;2023-03-01T21:04:38;98512.84;;;-0.42;60.55
20987;BME280;10652;50.306;8.570;2023-03-01T21:08:40;98507.66;;;-0.43;60.43
20987;BME280;10652;50.306;8.570;2023-03-01T21:12:42;98505.13;;;-0.33;61.39
20987;BME280;10652;50.306;8.570;2023-03-01T21:16:44;98507.72;;;-0.33;60.72
20987;BME280;10652;50.306;8.570;2023-03-01T21:20:47;98509.41;;;-0.38;60.34
20987;BME280;10652;50.306;8.570;2023-03-01T21:24:50;98509.41;;;-0.42;60.64
20987;BME280;10652;50.306;8.570;2023-03-01T21:28:57;98505.06;;;-0.45;60.43
20987;BME280;10652;50.306;8.570;2023-03-01T21:32:59;98506.78;;;-0.47;60.43
20987;BME280;10652;50.306;8.570;2023-03-01T21:37:02;98504.19;;;-0.50;60.78
20987;BME280;10652;50.306;8.570;2023-03-01T21:41:06;98504.16;;;-0.54;60.55
20987;BME280;10652;50.306;8.570;2023-03-01T21:45:08;98500.72;;;-0.56;60.93
20987;BME280;10652;50.306;8.570;2023-03-01T21:49:11;98498.16;;;-0.59;61.06
20987;BME280;10652;50.306;8.570;2023-03-01T21:53:13;98501.56;;;-0.62;60.99
20987;BME280;10652;50.306;8.570;2023-03-01T21:57:15;98491.25;;;-0.57;61.04
20987;BME280;10652;50.306;8.570;2023-03-01T22:01:22;98498.13;;;-0.58;60.97
20987;BME280;10652;50.306;8.570;2023-03-01T22:05:26;98495.56;;;-0.59;60.72
20987;BME280;10652;50.306;8.570;2023-03-01T22:09:28;98494.66;;;-0.63;61.17
20987;BME280;10652;50.306;8.570;2023-03-01T22:13:30;98488.66;;;-0.65;61.36
20987;BME280;10652;50.306;8.570;2023-03-01T22:17:32;98488.66;;;-0.65;61.34
20987;BME280;10652;50.306;8.570;2023-03-01T22:21:38;98488.63;;;-0.63;61.33
20987;BME280;10652;50.306;8.570;2023-03-01T22:25:41;98487.81;;;-0.64;61.86
20987;BME280;10652;50.306;8.570;2023-03-01T22:29:43;98494.66;;;-0.66;61.67
20987;BME280;10652;50.306;8.570;2023-03-01T22:33:45;98492.94;;;-0.67;61.73
20987;BME280;10652;50.306;8.570;2023-03-01T22:37:47;98479.16;;;-0.71;62.00
20987;BME280;10652;50.306;8.570;2023-03-01T22:41:49;98480.03;;;-0.73;61.86
20987;BME280;10652;50.306;8.570;2023-03-01T22:45:51;98480.00;;;-0.75;62.25
20987;BME280;10652;50.306;8.570;2023-03-01T22:49:54;98474.88;;;-0.73;62.26
20987;BME280;10652;50.306;8.570;2023-03-01T22:53:57;98480.84;;;-0.76;61.98
20987;BME280;10652;50.306;8.570;2023-03-01T22:57:59;98477.41;;;-0.82;62.34